sensor_id;sensor_type;location;lat;lon;timestamp;pressure;altitude;pressure_sealevel;temperature;humidity
62055;BME280;48653;51.742;-1.256;2024-02-28T00:03:46;101310.93;;;9.50;51.59
62055;BME280;48653;51.742;-1.256;2024-02-28T00:06:10;101313.07;;;9.51;51.65
62055;BME280;48653;51.742;-1.256;2024-02-28T00:08:36;101307.83;;;9.82;51.30
62055;BME280;48653;51.742;-1.256;2024-02-28T00:11:01;101313.28;;;9.47;52.29
62055;BME280;48653;51.742;-1.256;2024-02-28T00:13:26;101307.77;;;9.79;51.80
62055;BME280;48653;51.742;-1.256;2024-02-28T00:15:53;101301.42;;;9.30;52.97
62055;BME280;48653;51.742;-1.256;2024-02-28T00:18:17;101310.39;;;9.06;52.98
62055;BME280;48653;51.742;-1.256;2024-02-28T00:20:44;101317.52;;;9.57;52.73
62055;BME280;48653;51.742;-1.256;2024-02-28T00:23:08;101316.12;;;9.24;53.52
62055;BME280;48653;51.742;-1.256;2024-02-28T00:25:33;101313.63;;;9.13;53.12
62055;BME280;48653;51.742;-1.256;2024-02-28T00:27:59;101309.07;;;9.12;53.20
62055;BME280;48653;51.742;-1.256;2024-02-28T00:30:24;101308.20;;;9.70;53.31
62055;BME280;48653;51.742;-1.256;2024-02-28T00:32:49;101304.97;;;9.12;52.95
62055;BME280;48653;51.742;-1.256;2024-02-28T00:35:14;101301.95;;;9.25;53.01
62055;BME280;48653;51.742;-1.256;2024-02-28T00:37:40;101301.47;;;9.41;52.95
62055;BME280;48653;51.742;-1.256;2024-02-28T00:40:09;101301.88;;;9.76;52.73
62055;BME280;48653;51.742;-1.256;2024-02-28T00:42:30;101301.74;;;9.12;53.20
62055;BME280;48653;51.742;-1.256;2024-02-28T00:44:56;101305.37;;;9.29;52.52
62055;BME280;48653;51.742;-1.256;2024-02-28T00:47:20;101304.97;;;9.69;52.82
62055;BME280;48653;51.742;-1.256;2024-02-28T00:49:45;101307.73;;;8.90;54.91
62055;BME280;48653;51.742;-1.256;2024-02-28T00:52:11;101310.65;;;8.61;54.75
62055;BME280;48653;51.742;-1.256;2024-02-28T00:54:37;101312.97;;;9.16;54.30
62055;BME280;48653;51.742;-1.256;2024-02-28T00:57:02;101309.72;;;8.71;54.60
62055;BME280;48653;51.742;-1.256;2024-02-28T00:59:27;101312.17;;;9.13;54.16
62055;BME280;48653;51.742;-1.256;2024-02-28T01:01:53;101312.06;;;9.03;53.25
62055;BME280;48653;51.742;-1.256;2024-02-28T01:04:18;101311.00;;;9.29;53.07
62055;BME280;48653;51.742;-1.256;2024-02-28T01:06:44;101310.31;;;8.91;54.61
62055;BME280;48653;51.742;-1.256;2024-02-28T01:09:14;101303.41;;;9.10;53.89
62055;BME280;48653;51.742;-1.256;2024-02-28T01:11:34;101301.58;;;8.95;53.95
62055;BME280;48653;51.742;-1.256;2024-02-28T01:14:00;101294.84;;;8.84;53.63
62055;BME280;48653;51.742;-1.256;2024-02-28T01:16:25;101296.63;;;9.37;53.12
62055;BME280;48653;51.742;-1.256;2024-02-28T01:18:50;101301.61;;;9.06;53.59
62055;BME280;48653;51.742;-1.256;2024-02-28T01:21:16;101300.35;;;9.01;53.12
62055;BME280;48653;51.742;-1.256;2024-02-28T01:23:41;101301.44;;;9.59;52.31
62055;BME280;48653;51.742;-1.256;2024-02-28T01:26:07;101304.44;;;8.99;53.20
62055;BME280;48653;51.742;-1.256;2024-02-28T01:28:32;101310.68;;;9.40;52.90
62055;BME280;48653;51.742;-1.256;2024-02-28T01:30:58;101312.24;;;9.19;53.49
62055;BME280;48653;51.742;-1.256;2024-02-28T01:33:22;101315.77;;;9.29;53.37
62055;BME280;48653;51.742;-1.256;2024-02-28T01:35:48;101314.65;;;9.46;53.23
62055;BME280;48653;51.742;-1.256;2024-02-28T01:38:13;101314.60;;;9.30;53.31
62055;BME280;48653;51.742;-1.256;2024-02-28T01:40:38;101321.12;;;9.18;53.00
62055;BME280;48653;51.742;-1.256;2024-02-28T01:43:04;101328.05;;;9.17;53.27
62055;BME280;48653;51.742;-1.256;2024-02-28T01:45:29;101327.74;;;9.42;52.97
62055;BME280;48653;51.742;-1.256;2024-02-28T01:47:55;101321.93;;;9.21;53.03
62055;BME280;48653;51.742;-1.256;2024-02-28T01:50:20;101318.55;;;9.62;51.99
62055;BME280;48653;51.742;-1.256;2024-02-28T01:52:46;101319.00;;;9.45;52.67
62055;BME280;48653;51.742;-1.256;2024-02-28T01:55:12;101315.36;;;9.38;52.53
62055;BME280;48653;51.742;-1.256;2024-02-28T01:57:37;101321.39;;;9.39;53.05
62055;BME280;48653;51.742;-1.256;2024-02-28T02:00:03;101321.48;;;9.48;52.68
62055;BME280;48653;51.742;-1.256;2024-02-28T02:02:28;101320.45;;;9.66;52.29
62055;BME280;48653;51.742;-1.256;2024-02-28T02:04:53;101319.16;;;9.41;52.58
62055;BME280;48653;51.742;-1.256;2024-02-28T02:07:18;101318.72;;;9.48;52.49
62055;BME280;48653;51.742;-1.256;2024-02-28T02:09:44;101314.04;;;9.74;52.50
62055;BME280;48653;51.742;-1.256;2024-02-28T02:12:09;101310.55;;;9.57;52.44
62055;BME280;48653;51.742;-1.256;2024-02-28T02:14:35;101301.54;;;9.55;52.62
62055;BME280;48653;51.742;-1.256;2024-02-28T02:17:00;101303.37;;;9.34;52.73
62055;BME280;48653;51.742;-1.256;2024-02-28T02:19:26;101308.17;;;9.39;52.82
62055;BME280;48653;51.742;-1.256;2024-02-28T02:21:54;101311.23;;;9.57;52.38
62055;BME280;48653;51.742;-1.256;2024-02-28T02:24:17;101314.34;;;9.54;52.54
62055;BME280;48653;51.742;-1.256;2024-02-28T02:26:43;101318.95;;;9.54;52.30
62055;BME280;48653;51.742;-1.256;2024-02-28T02:29:08;101317.08;;;9.10;54.13
62055;BME280;48653;51.742;-1.256;2024-02-28T02:31:33;101311.97;;;9.18;53.50
62055;BME280;48653;51.742;-1.256;2024-02-28T02:33:59;101308.44;;;9.24;53.41
62055;BME280;48653;51.742;-1.256;2024-02-28T02:36:24;101300.51;;;9.76;52.72
62055;BME280;48653;51.742;-1.256;2024-02-28T02:38:50;101297.33;;;9.33;52.71
62055;BME280;48653;51.742;-1.256;2024-02-28T02:41:16;101298.20;;;9.28;53.08
62055;BME280;48653;51.742;-1.256;2024-02-28T02:43:42;101302.86;;;9.56;53.09
62055;BME280;48653;51.742;-1.256;2024-02-28T02:46:08;101308.46;;;9.46;53.51
62055;BME280;48653;51.742;-1.256;2024-02-28T02:48:33;101313.22;;;9.33;53.23
62055;BME280;48653;51.742;-1.256;2024-02-28T02:50:59;101314.75;;;9.28;53.06
62055;BME280;48653;51.742;-1.256;2024-02-28T02:53:24;101318.17;;;9.59;52.87
62055;BME280;48653;51.742;-1.256;2024-02-28T02:55:50;101318.68;;;9.25;53.42
62055;BME280;48653;51.742;-1.256;2024-02-28T02:58:16;101317.11;;;9.09;53.62
62055;BME280;48653;51.742;-1.256;2024-02-28T03:00:40;101315.83;;;9.79;53.18
62055;BME280;48653;51.742;-1.256;2024-02-28T03:03:06;101315.17;;;9.17;53.39
62055;BME280;48653;51.742;-1.256;2024-02-28T03:05:31;101314.89;;;9.34;53.38
62055;BME280;48653;51.742;-1.256;2024-02-28T03:07:56;101312.81;;;9.27;53.78
62055;BME280;48653;51.742;-1.256;2024-02-28T03:10:22;101306.78;;;9.54;53.62
62055;BME280;48653;51.742;-1.256;2024-02-28T03:12:47;101300.07;;;9.42;53.44
62055;BME280;48653;51.742;-1.256;2024-02-28T03:15:13;101295.67;;;9.35;53.09
62055;BME280;48653;51.742;-1.256;2024-02-28T03:17:38;101290.34;;;9.56;53.43
62055;BME280;48653;51.742;-1.256;2024-02-28T03:20:04;101287.19;;;9.82;53.07
62055;BME280;48653;51.742;-1.256;2024-02-28T03:22:29;101295.18;;;9.08;53.54
62055;BME280;48653;51.742;-1.256;2024-02-28T03:24:54;101298.27;;;9.43;53.67
62055;BME280;48653;51.742;-1.256;2024-02-28T03:27:19;101294.53;;;9.37;53.44
62055;BME280;48653;51.742;-1.256;2024-02-28T03:29:44;101290.11;;;9.60;52.74
62055;BME280;48653;51.742;-1.256;2024-02-28T03:32:11;101292.36;;;9.34;53.37
62055;BME280;48653;51.742;-1.256;2024-02-28T03:34:36;101293.30;;;9.35;53.69
62055;BME280;48653;51.742;-1.256;2024-02-28T03:37:01;101292.52;;;9.09;54.19
62055;BME280;48653;51.742;-1.256;2024-02-28T03:39:26;101297.84;;;9.43;53.90
62055;BME280;48653;51.742;-1.256;2024-02-28T03:41:52;101301.33;;;9.67;54.12
62055;BME280;48653;51.742;-1.256;2024-02-28T03:44:17;101292.80;;;9.26;53.94
62055;BME280;48653;51.742;-1.256;2024-02-28T03:46:43;101287.74;;;9.33;53.55
62055;BME280;48653;51.742;-1.256;2024-02-28T03:49:09;101284.73;;;9.42;53.98
62055;BME280;48653;51.742;-1.256;2024-02-28T03:51:39;101278.32;;;9.35;53.70
62055;BME280;48653;51.742;-1.256;2024-02-28T03:53:59;101279.40;;;9.35;53.59
62055;BME280;48653;51.742;-1.256;2024-02-28T03:56:25;101288.61;;;9.37;53.91
62055;BME280;48653;51.742;-1.256;2024-02-28T03:58:51;101297.58;;;9.53;53.45
62055;BME280;48653;51.742;-1.256;2024-02-28T04:01:16;101296.29;;;9.38;53.82
62055;BME280;48653;51.742;-1.256;2024-02-28T04:03:41;101291.71;;;9.33;53.92
62055;BME280;48653;51.742;-1.256;2024-02-28T04:08:32;101290.97;;;9.16;53.84
62055;BME280;48653;51.742;-1.256;2024-02-28T04:10:59;101285.83;;;9.39;53.62
62055;BME280;48653;51.742;-1.256;2024-02-28T04:13:23;101280.42;;;9.44;52.72
62055;BME280;48653;51.742;-1.256;2024-02-28T04:15:49;101281.64;;;9.48;52.90
62055;BME280;48653;51.742;-1.256;2024-02-28T04:18:14;101280.91;;;9.45;52.78
62055;BME280;48653;51.742;-1.256;2024-02-28T04:20:39;101279.68;;;9.33;52.69
62055;BME280;48653;51.742;-1.256;2024-02-28T04:23:05;101264.72;;;9.20;52.94
62055;BME280;48653;51.742;-1.256;2024-02-28T04:25:31;101261.75;;;9.70;52.36
62055;BME280;48653;51.742;-1.256;2024-02-28T04:27:56;101278.17;;;9.96;51.49
62055;BME280;48653;51.742;-1.256;2024-02-28T04:30:21;101271.33;;;9.66;51.77
62055;BME280;48653;51.742;-1.256;2024-02-28T04:32:46;101264.56;;;9.54;51.94
62055;BME280;48653;51.742;-1.256;2024-02-28T04:35:12;101265.48;;;9.55;52.11
62055;BME280;48653;51.742;-1.256;2024-02-28T04:37:37;101268.21;;;9.75;51.45
62055;BME280;48653;51.742;-1.256;2024-02-28T04:40:02;101260.41;;;9.74;51.53
62055;BME280;48653;51.742;-1.256;2024-02-28T04:42:28;101246.92;;;9.87;51.75
62055;BME280;48653;51.742;-1.256;2024-02-28T04:44:53;101241.89;;;9.54;51.70
62055;BME280;48653;51.742;-1.256;2024-02-28T04:47:19;101255.22;;;9.48;51.56
62055;BME280;48653;51.742;-1.256;2024-02-28T04:49:44;101249.74;;;9.61;50.94
62055;BME280;48653;51.742;-1.256;2024-02-28T04:52:09;101243.31;;;10.35;50.12
62055;BME280;48653;51.742;-1.256;2024-02-28T04:54:35;101244.00;;;9.86;51.12
62055;BME280;48653;51.742;-1.256;2024-02-28T04:57:00;101235.88;;;9.73;51.48
62055;BME280;48653;51.742;-1.256;2024-02-28T04:59:25;101228.54;;;9.75;51.75
62055;BME280;48653;51.742;-1.256;2024-02-28T05:01:51;101229.61;;;9.34;52.94
62055;BME280;48653;51.742;-1.256;2024-02-28T05:04:16;101230.37;;;9.44;52.72
62055;BME280;48653;51.742;-1.256;2024-02-28T05:06:41;101231.78;;;9.47;52.74
62055;BME280;48653;51.742;-1.256;2024-02-28T05:09:07;101226.24;;;9.18;53.13
62055;BME280;48653;51.742;-1.256;2024-02-28T05:11:32;101229.93;;;9.65;53.05
62055;BME280;48653;51.742;-1.256;2024-02-28T05:13:58;101228.51;;;9.48;52.99
62055;BME280;48653;51.742;-1.256;2024-02-28T05:16:23;101227.11;;;9.30;53.13
62055;BME280;48653;51.742;-1.256;2024-02-28T05:18:49;101227.82;;;9.41;53.17
62055;BME280;48653;51.742;-1.256;2024-02-28T05:21:14;101227.46;;;9.41;53.29
62055;BME280;48653;51.742;-1.256;2024-02-28T05:23:40;101227.13;;;9.41;52.64
62055;BME280;48653;51.742;-1.256;2024-02-28T05:26:06;101228.85;;;9.34;53.06
62055;BME280;48653;51.742;-1.256;2024-02-28T05:28:31;101223.97;;;9.29;53.10
62055;BME280;48653;51.742;-1.256;2024-02-28T05:30:56;101219.03;;;9.55;53.58
62055;BME280;48653;51.742;-1.256;2024-02-28T05:33:22;101217.27;;;8.72;55.59
62055;BME280;48653;51.742;-1.256;2024-02-28T05:35:47;101208.78;;;9.06;54.93
62055;BME280;48653;51.742;-1.256;2024-02-28T05:38:13;101205.36;;;9.13;54.59
62055;BME280;48653;51.742;-1.256;2024-02-28T05:40:38;101213.62;;;8.89;55.31
62055;BME280;48653;51.742;-1.256;2024-02-28T05:43:04;101217.02;;;9.05;54.97
62055;BME280;48653;51.742;-1.256;2024-02-28T05:45:29;101210.98;;;8.96;54.98
62055;BME280;48653;51.742;-1.256;2024-02-28T05:47:54;101210.41;;;9.08;55.14
62055;BME280;48653;51.742;-1.256;2024-02-28T05:50:20;101204.42;;;9.20;54.04
62055;BME280;48653;51.742;-1.256;2024-02-28T05:52:47;101202.42;;;9.16;54.21
62055;BME280;48653;51.742;-1.256;2024-02-28T05:55:11;101206.39;;;9.20;54.41
62055;BME280;48653;51.742;-1.256;2024-02-28T05:57:37;101206.62;;;9.09;54.07
62055;BME280;48653;51.742;-1.256;2024-02-28T06:00:03;101207.73;;;9.07;53.36
62055;BME280;48653;51.742;-1.256;2024-02-28T06:02:27;101210.55;;;9.38;53.35
62055;BME280;48653;51.742;-1.256;2024-02-28T06:04:53;101208.41;;;9.38;52.76
62055;BME280;48653;51.742;-1.256;2024-02-28T06:07:18;101200.88;;;9.48;52.73
62055;BME280;48653;51.742;-1.256;2024-02-28T06:09:44;101200.85;;;8.98;53.13
62055;BME280;48653;51.742;-1.256;2024-02-28T06:12:11;101200.51;;;9.48;52.96
62055;BME280;48653;51.742;-1.256;2024-02-28T06:14:35;101190.27;;;9.70;52.15
62055;BME280;48653;51.742;-1.256;2024-02-28T06:17:00;101183.20;;;9.25;52.16
62055;BME280;48653;51.742;-1.256;2024-02-28T06:19:25;101178.44;;;9.30;52.28
62055;BME280;48653;51.742;-1.256;2024-02-28T06:21:51;101181.84;;;9.57;52.27
62055;BME280;48653;51.742;-1.256;2024-02-28T06:24:17;101174.86;;;9.53;52.38
62055;BME280;48653;51.742;-1.256;2024-02-28T06:26:43;101179.44;;;9.73;52.04
62055;BME280;48653;51.742;-1.256;2024-02-28T06:29:08;101176.52;;;9.35;52.42
62055;BME280;48653;51.742;-1.256;2024-02-28T06:31:33;101179.22;;;9.58;52.25
62055;BME280;48653;51.742;-1.256;2024-02-28T06:33:59;101181.57;;;9.70;52.29
62055;BME280;48653;51.742;-1.256;2024-02-28T06:36:24;101175.81;;;9.70;52.25
62055;BME280;48653;51.742;-1.256;2024-02-28T06:38:50;101172.92;;;9.34;53.28
62055;BME280;48653;51.742;-1.256;2024-02-28T06:41:15;101182.79;;;9.46;52.73
62055;BME280;48653;51.742;-1.256;2024-02-28T06:43:40;101188.40;;;9.23;53.96
62055;BME280;48653;51.742;-1.256;2024-02-28T06:46:06;101188.74;;;9.11;54.02
62055;BME280;48653;51.742;-1.256;2024-02-28T06:48:32;101186.41;;;8.77;55.29
62055;BME280;48653;51.742;-1.256;2024-02-28T06:50:57;101186.90;;;8.23;56.54
62055;BME280;48653;51.742;-1.256;2024-02-28T06:53:23;101191.34;;;8.46;56.03
62055;BME280;48653;51.742;-1.256;2024-02-28T06:55:48;101190.70;;;8.72;56.08
62055;BME280;48653;51.742;-1.256;2024-02-28T06:58:13;101186.65;;;8.62;56.73
62055;BME280;48653;51.742;-1.256;2024-02-28T07:00:39;101182.52;;;8.08;58.21
62055;BME280;48653;51.742;-1.256;2024-02-28T07:03:04;101173.81;;;8.36;58.17
62055;BME280;48653;51.742;-1.256;2024-02-28T07:05:30;101171.79;;;8.29;57.76
62055;BME280;48653;51.742;-1.256;2024-02-28T07:07:55;101166.70;;;8.62;56.91
62055;BME280;48653;51.742;-1.256;2024-02-28T07:10:20;101158.44;;;8.95;56.16
62055;BME280;48653;51.742;-1.256;2024-02-28T07:12:45;101159.23;;;9.01;55.45
62055;BME280;48653;51.742;-1.256;2024-02-28T07:15:10;101157.96;;;9.25;54.45
62055;BME280;48653;51.742;-1.256;2024-02-28T07:17:36;101160.74;;;8.83;54.87
62055;BME280;48653;51.742;-1.256;2024-02-28T07:20:02;101152.65;;;9.02;54.48
62055;BME280;48653;51.742;-1.256;2024-02-28T07:22:27;101156.91;;;8.95;54.63
62055;BME280;48653;51.742;-1.256;2024-02-28T07:24:53;101159.77;;;9.05;54.99
62055;BME280;48653;51.742;-1.256;2024-02-28T07:27:18;101157.53;;;9.11;54.49
62055;BME280;48653;51.742;-1.256;2024-02-28T07:29:43;101167.27;;;8.72;55.22
62055;BME280;48653;51.742;-1.256;2024-02-28T07:32:08;101175.02;;;9.48;54.40
62055;BME280;48653;51.742;-1.256;2024-02-28T07:34:33;101180.27;;;8.89;54.93
62055;BME280;48653;51.742;-1.256;2024-02-28T07:36:59;101180.06;;;8.75;55.29
62055;BME280;48653;51.742;-1.256;2024-02-28T07:39:25;101190.45;;;9.32;55.00
62055;BME280;48653;51.742;-1.256;2024-02-28T07:41:50;101192.46;;;8.90;55.02
62055;BME280;48653;51.742;-1.256;2024-02-28T07:44:16;101197.45;;;8.89;54.88
62055;BME280;48653;51.742;-1.256;2024-02-28T07:46:41;101205.32;;;9.30;54.23
62055;BME280;48653;51.742;-1.256;2024-02-28T07:49:06;101205.25;;;9.11;54.55
62055;BME280;48653;51.742;-1.256;2024-02-28T07:51:31;101205.55;;;9.01;54.84
62055;BME280;48653;51.742;-1.256;2024-02-28T07:53:57;101204.83;;;9.13;55.66
62055;BME280;48653;51.742;-1.256;2024-02-28T07:56:22;101207.82;;;8.62;56.85
62055;BME280;48653;51.742;-1.256;2024-02-28T07:58:47;101201.25;;;9.51;55.05
62055;BME280;48653;51.742;-1.256;2024-02-28T08:01:12;101201.00;;;8.76;55.38
62055;BME280;48653;51.742;-1.256;2024-02-28T08:03:38;101207.40;;;9.07;55.36
62055;BME280;48653;51.742;-1.256;2024-02-28T08:06:04;101212.25;;;9.15;55.23
62055;BME280;48653;51.742;-1.256;2024-02-28T08:08:28;101211.08;;;9.35;55.08
62055;BME280;48653;51.742;-1.256;2024-02-28T08:10:54;101215.02;;;9.39;54.95
62055;BME280;48653;51.742;-1.256;2024-02-28T08:13:19;101218.68;;;8.68;55.99
62055;BME280;48653;51.742;-1.256;2024-02-28T08:15:45;101220.79;;;9.27;54.46
62055;BME280;48653;51.742;-1.256;2024-02-28T08:18:11;101217.16;;;9.33;54.21
62055;BME280;48653;51.742;-1.256;2024-02-28T08:20:36;101213.55;;;9.52;54.40
62055;BME280;48653;51.742;-1.256;2024-02-28T08:23:01;101219.41;;;9.23;54.57
62055;BME280;48653;51.742;-1.256;2024-02-28T08:25:26;101219.99;;;9.18;54.60
62055;BME280;48653;51.742;-1.256;2024-02-28T08:27:51;101220.09;;;9.40;54.66
62055;BME280;48653;51.742;-1.256;2024-02-28T08:30:17;101221.75;;;9.46;54.14
62055;BME280;48653;51.742;-1.256;2024-02-28T08:32:42;101215.60;;;9.61;53.68
62055;BME280;48653;51.742;-1.256;2024-02-28T08:35:08;101217.61;;;9.75;54.05
62055;BME280;48653;51.742;-1.256;2024-02-28T08:37:32;101214.90;;;9.59;53.73
62055;BME280;48653;51.742;-1.256;2024-02-28T08:39:58;101211.10;;;9.49;53.88
62055;BME280;48653;51.742;-1.256;2024-02-28T08:42:24;101213.16;;;9.58;53.64
62055;BME280;48653;51.742;-1.256;2024-02-28T08:44:48;101213.17;;;8.99;54.75
62055;BME280;48653;51.742;-1.256;2024-02-28T08:47:13;101207.42;;;9.09;54.48
62055;BME280;48653;51.742;-1.256;2024-02-28T08:49:39;101212.05;;;9.34;54.12
62055;BME280;48653;51.742;-1.256;2024-02-28T08:52:04;101206.59;;;9.70;53.48
62055;BME280;48653;51.742;-1.256;2024-02-28T08:54:30;101208.09;;;9.60;53.91
62055;BME280;48653;51.742;-1.256;2024-02-28T08:56:55;101209.95;;;9.38;54.06
62055;BME280;48653;51.742;-1.256;2024-02-28T08:59:21;101208.46;;;9.20;53.94
62055;BME280;48653;51.742;-1.256;2024-02-28T09:01:46;101202.24;;;9.39;54.21
62055;BME280;48653;51.742;-1.256;2024-02-28T09:04:12;101208.19;;;8.95;55.55
62055;BME280;48653;51.742;-1.256;2024-02-28T09:06:36;101201.46;;;9.04;55.30
62055;BME280;48653;51.742;-1.256;2024-02-28T09:09:02;101204.57;;;8.98;55.46
62055;BME280;48653;51.742;-1.256;2024-02-28T09:11:27;101203.80;;;9.35;54.91
62055;BME280;48653;51.742;-1.256;2024-02-28T09:13:53;101201.79;;;9.00;55.07
62055;BME280;48653;51.742;-1.256;2024-02-28T09:16:19;101209.00;;;9.55;54.11
62055;BME280;48653;51.742;-1.256;2024-02-28T09:18:44;101210.54;;;9.79;54.22
62055;BME280;48653;51.742;-1.256;2024-02-28T09:21:11;101207.59;;;8.92;54.64
62055;BME280;48653;51.742;-1.256;2024-02-28T09:23:35;101216.05;;;9.64;54.29
62055;BME280;48653;51.742;-1.256;2024-02-28T09:26:03;101220.29;;;8.86;55.29
62055;BME280;48653;51.742;-1.256;2024-02-28T09:28:26;101217.13;;;8.36;56.69
62055;BME280;48653;51.742;-1.256;2024-02-28T09:30:51;101215.60;;;7.83;57.30
62055;BME280;48653;51.742;-1.256;2024-02-28T09:33:17;101217.60;;;8.72;55.28
62055;BME280;48653;51.742;-1.256;2024-02-28T09:35:42;101209.03;;;8.44;54.95
62055;BME280;48653;51.742;-1.256;2024-02-28T09:38:07;101202.33;;;8.90;54.39
62055;BME280;48653;51.742;-1.256;2024-02-28T09:40:33;101193.26;;;8.21;54.98
62055;BME280;48653;51.742;-1.256;2024-02-28T09:43:02;101183.83;;;8.37;54.67
62055;BME280;48653;51.742;-1.256;2024-02-28T09:45:24;101182.07;;;8.18;56.10
62055;BME280;48653;51.742;-1.256;2024-02-28T09:47:49;101178.49;;;8.58;54.42
62055;BME280;48653;51.742;-1.256;2024-02-28T09:50:14;101174.53;;;8.99;53.44
62055;BME280;48653;51.742;-1.256;2024-02-28T09:52:39;101168.88;;;9.00;53.15
62055;BME280;48653;51.742;-1.256;2024-02-28T09:55:05;101170.41;;;9.69;52.04
62055;BME280;48653;51.742;-1.256;2024-02-28T09:57:32;101175.04;;;8.46;55.39
62055;BME280;48653;51.742;-1.256;2024-02-28T09:59:57;101170.24;;;9.05;54.53
62055;BME280;48653;51.742;-1.256;2024-02-28T10:02:21;101168.17;;;9.26;53.48
62055;BME280;48653;51.742;-1.256;2024-02-28T10:04:46;101170.98;;;8.77;55.01
62055;BME280;48653;51.742;-1.256;2024-02-28T10:07:12;101170.82;;;8.84;54.92
62055;BME280;48653;51.742;-1.256;2024-02-28T10:09:37;101166.96;;;8.97;54.55
62055;BME280;48653;51.742;-1.256;2024-02-28T10:12:03;101170.80;;;8.85;54.66
62055;BME280;48653;51.742;-1.256;2024-02-28T10:14:28;101170.33;;;9.63;53.29
62055;BME280;48653;51.742;-1.256;2024-02-28T10:16:55;101165.68;;;9.78;52.32
62055;BME280;48653;51.742;-1.256;2024-02-28T10:19:18;101160.94;;;9.83;51.88
62055;BME280;48653;51.742;-1.256;2024-02-28T10:21:46;101164.77;;;9.71;52.07
62055;BME280;48653;51.742;-1.256;2024-02-28T10:24:12;101159.36;;;9.22;53.44
62055;BME280;48653;51.742;-1.256;2024-02-28T10:26:42;101157.41;;;9.86;52.12
62055;BME280;48653;51.742;-1.256;2024-02-28T10:29:00;101156.01;;;9.97;51.88
62055;BME280;48653;51.742;-1.256;2024-02-28T10:31:25;101153.15;;;9.88;51.75
62055;BME280;48653;51.742;-1.256;2024-02-28T10:36:16;101156.72;;;9.84;50.56
62055;BME280;48653;51.742;-1.256;2024-02-28T10:38:41;101151.72;;;9.33;51.71
62055;BME280;48653;51.742;-1.256;2024-02-28T10:41:06;101138.65;;;9.99;50.68
62055;BME280;48653;51.742;-1.256;2024-02-28T10:43:31;101141.64;;;10.03;49.29
62055;BME280;48653;51.742;-1.256;2024-02-28T10:45:58;101141.50;;;10.36;49.72
62055;BME280;48653;51.742;-1.256;2024-02-28T10:48:23;101136.69;;;10.18;49.20
62055;BME280;48653;51.742;-1.256;2024-02-28T10:50:48;101139.46;;;10.35;50.23
62055;BME280;48653;51.742;-1.256;2024-02-28T10:53:14;101133.52;;;10.60;49.47
62055;BME280;48653;51.742;-1.256;2024-02-28T10:55:40;101128.27;;;10.88;48.46
62055;BME280;48653;51.742;-1.256;2024-02-28T10:58:07;101125.91;;;11.17;48.25
62055;BME280;48653;51.742;-1.256;2024-02-28T11:00:30;101127.68;;;11.06;48.09
62055;BME280;48653;51.742;-1.256;2024-02-28T11:02:55;101120.50;;;10.89;47.88
62055;BME280;48653;51.742;-1.256;2024-02-28T11:05:19;101116.11;;;10.62;48.43
62055;BME280;48653;51.742;-1.256;2024-02-28T11:07:44;101111.95;;;11.15;48.39
62055;BME280;48653;51.742;-1.256;2024-02-28T11:10:11;101111.56;;;10.92;48.70
62055;BME280;48653;51.742;-1.256;2024-02-28T11:12:35;101112.70;;;10.97;47.60
62055;BME280;48653;51.742;-1.256;2024-02-28T11:15:01;101112.72;;;10.61;48.25
62055;BME280;48653;51.742;-1.256;2024-02-28T11:17:27;101112.83;;;10.62;48.39
62055;BME280;48653;51.742;-1.256;2024-02-28T11:19:51;101111.22;;;11.04;48.20
62055;BME280;48653;51.742;-1.256;2024-02-28T11:22:18;101104.29;;;10.46;47.74
62055;BME280;48653;51.742;-1.256;2024-02-28T11:24:45;101103.53;;;10.81;47.74
62055;BME280;48653;51.742;-1.256;2024-02-28T11:27:07;101105.34;;;11.64;46.20
62055;BME280;48653;51.742;-1.256;2024-02-28T11:29:32;101100.08;;;10.03;48.02
62055;BME280;48653;51.742;-1.256;2024-02-28T11:31:57;101098.54;;;10.71;47.84
62055;BME280;48653;51.742;-1.256;2024-02-28T11:34:23;101094.70;;;10.17;48.14
62055;BME280;48653;51.742;-1.256;2024-02-28T11:36:48;101092.68;;;10.03;48.45
62055;BME280;48653;51.742;-1.256;2024-02-28T11:39:13;101095.18;;;10.20;48.71
62055;BME280;48653;51.742;-1.256;2024-02-28T11:41:37;101095.62;;;10.46;48.74
62055;BME280;48653;51.742;-1.256;2024-02-28T11:44:02;101098.35;;;9.67;49.61
62055;BME280;48653;51.742;-1.256;2024-02-28T11:46:28;101094.87;;;9.91;49.37
62055;BME280;48653;51.742;-1.256;2024-02-28T11:48:53;101089.95;;;10.35;48.24
62055;BME280;48653;51.742;-1.256;2024-02-28T11:51:18;101082.63;;;9.97;49.02
62055;BME280;48653;51.742;-1.256;2024-02-28T11:53:43;101070.64;;;10.11;49.23
62055;BME280;48653;51.742;-1.256;2024-02-28T11:56:08;101058.15;;;9.68;50.20
62055;BME280;48653;51.742;-1.256;2024-02-28T11:58:34;101058.36;;;10.56;50.37
62055;BME280;48653;51.742;-1.256;2024-02-28T12:01:00;101051.61;;;9.77;50.89
62055;BME280;48653;51.742;-1.256;2024-02-28T12:03:25;101053.91;;;10.13;51.13
62055;BME280;48653;51.742;-1.256;2024-02-28T12:05:51;101053.82;;;10.13;51.63
62055;BME280;48653;51.742;-1.256;2024-02-28T12:08:17;101038.96;;;9.87;51.77
62055;BME280;48653;51.742;-1.256;2024-02-28T12:10:41;101025.81;;;10.11;51.48
62055;BME280;48653;51.742;-1.256;2024-02-28T12:13:06;101019.73;;;10.01;53.20
62055;BME280;48653;51.742;-1.256;2024-02-28T12:15:32;101019.57;;;9.99;52.18
62055;BME280;48653;51.742;-1.256;2024-02-28T12:17:57;101015.42;;;11.41;50.24
62055;BME280;48653;51.742;-1.256;2024-02-28T12:20:23;101011.77;;;9.65;52.13
62055;BME280;48653;51.742;-1.256;2024-02-28T12:22:48;101010.14;;;10.00;51.92
62055;BME280;48653;51.742;-1.256;2024-02-28T12:25:13;101008.14;;;9.75;52.80
62055;BME280;48653;51.742;-1.256;2024-02-28T12:27:38;101003.64;;;9.62;53.33
62055;BME280;48653;51.742;-1.256;2024-02-28T12:30:05;101000.30;;;9.03;53.81
62055;BME280;48653;51.742;-1.256;2024-02-28T12:32:29;101004.78;;;9.68;52.58
62055;BME280;48653;51.742;-1.256;2024-02-28T12:34:54;101002.79;;;10.22;51.64
62055;BME280;48653;51.742;-1.256;2024-02-28T12:37:19;101007.33;;;10.11;52.12
62055;BME280;48653;51.742;-1.256;2024-02-28T12:39:44;101003.38;;;10.16;51.40
62055;BME280;48653;51.742;-1.256;2024-02-28T12:42:09;100989.22;;;10.46;51.10
62055;BME280;48653;51.742;-1.256;2024-02-28T12:44:34;100990.21;;;9.92;51.80